createdAt,value
2022-11-02T00:02:05.191Z,98227.59
2022-11-02T00:04:35.163Z,98233.31
2022-11-02T00:07:07.898Z,98231.28
2022-11-02T00:09:37.898Z,98220.47
2022-11-02T00:12:09.001Z,98220.84
2022-11-02T00:14:38.814Z,98224.03
2022-11-02T00:17:08.696Z,98225.28
2022-11-02T00:19:38.582Z,98220.63
2022-11-02T00:22:11.098Z,98218.63
2022-11-02T00:24:41.152Z,98219.59
2022-11-02T00:27:11.464Z,98232.06
2022-11-02T00:29:41.417Z,98221.63
2022-11-02T00:32:11.295Z,98231.31
2022-11-02T00:34:41.473Z,98231.91
2022-11-02T00:37:14.081Z,98227.75
2022-11-02T00:39:43.950Z,98237.41
2022-11-02T00:42:14.103Z,98232.72
2022-11-02T00:44:44.358Z,98241.84
2022-11-02T00:47:15.142Z,98232.31
2022-11-02T00:49:45.173Z,98240.97
2022-11-02T00:52:18.095Z,98246.41
2022-11-02T00:54:52.452Z,98238.38
2022-11-02T00:57:22.540Z,98232.63
2022-11-02T00:59:52.613Z,98240.97
2022-11-02T01:02:23.003Z,98237.13
2022-11-02T01:04:52.951Z,98236.72
2022-11-02T01:07:25.497Z,98237.19
2022-11-02T01:09:55.390Z,98234.75
2022-11-02T01:12:25.827Z,98227.66
2022-11-02T01:14:55.714Z,98234.41
2022-11-02T01:17:25.668Z,98233.06
2022-11-02T01:19:55.721Z,98232.75
2022-11-02T01:22:29.705Z,98236.00
2022-11-02T01:24:59.561Z,98237.53
2022-11-02T01:27:29.697Z,98233.94
2022-11-02T01:29:59.865Z,98233.59
2022-11-02T01:32:32.397Z,98239.59
2022-11-02T01:35:02.973Z,98237.50
2022-11-02T01:37:35.583Z,98232.63
2022-11-02T01:40:05.625Z,98238.59
2022-11-02T01:42:35.620Z,98231.84
2022-11-02T01:45:05.620Z,98230.50
2022-11-02T01:47:39.311Z,98232.97
2022-11-02T01:50:15.197Z,98242.81
2022-11-02T01:52:47.678Z,98229.72
2022-11-02T01:55:19.548Z,98228.81
2022-11-02T01:57:52.228Z,98232.16
2022-11-02T02:00:22.632Z,98224.88
2022-11-02T02:02:55.274Z,98220.72
2022-11-02T02:05:26.117Z,98224.72
2022-11-02T02:07:58.819Z,98223.75
2022-11-02T02:10:28.747Z,98215.50
2022-11-02T02:12:59.168Z,98222.00
2022-11-02T02:15:37.655Z,98220.47
2022-11-02T02:18:14.427Z,98223.88
2022-11-02T02:20:59.067Z,98228.84
2022-11-02T02:24:00.301Z,98225.25
2022-11-02T02:27:08.601Z,98223.72
2022-11-02T02:29:50.617Z,98219.00
2022-11-02T02:32:24.364Z,98218.25
2022-11-02T02:34:56.852Z,98231.53
2022-11-02T02:37:30.367Z,98217.94
2022-11-02T02:40:06.464Z,98233.22
2022-11-02T02:42:44.146Z,98228.50
2022-11-02T02:45:20.888Z,98230.06
2022-11-02T02:48:12.446Z,98218.38
2022-11-02T02:50:46.194Z,98225.59
2022-11-02T02:53:17.679Z,98220.22
2022-11-02T02:55:49.354Z,98224.25
2022-11-02T02:58:23.532Z,98214.81
2022-11-02T03:00:56.214Z,98214.31
2022-11-02T03:03:27.891Z,98210.19
2022-11-02T03:06:04.841Z,98214.00
2022-11-02T03:08:39.012Z,98210.63
2022-11-02T03:11:15.995Z,98215.47
2022-11-02T03:14:00.810Z,98215.78
2022-11-02T03:16:45.687Z,98227.53
2022-11-02T03:19:24.028Z,98219.34
2022-11-02T03:22:00.660Z,98222.38
2022-11-02T03:24:33.585Z,98226.25
2022-11-02T03:27:15.625Z,98232.56
2022-11-02T03:29:51.222Z,98231.66
2022-11-02T03:32:28.320Z,98228.56
2022-11-02T03:35:00.064Z,98227.03
2022-11-02T03:37:33.862Z,98233.66
2022-11-02T03:40:11.749Z,98224.38
2022-11-02T03:42:44.795Z,98227.16
2022-11-02T03:45:18.780Z,98225.91
2022-11-02T03:47:55.131Z,98233.16
2022-11-02T03:50:27.946Z,98227.28
2022-11-02T03:53:01.343Z,98233.56
2022-11-02T03:55:34.026Z,98227.06
2022-11-02T03:58:04.591Z,98228.50
2022-11-02T04:00:37.048Z,98219.53
2022-11-02T04:03:14.947Z,98215.84
2022-11-02T04:05:47.561Z,98218.13
2022-11-02T04:08:31.545Z,98220.13
2022-11-02T04:11:17.590Z,98224.09
2022-11-02T04:14:01.575Z,98217.78
2022-11-02T04:16:34.635Z,98218.25
2022-11-02T04:19:24.297Z,98219.47
2022-11-02T04:22:08.132Z,98221.81
2022-11-02T04:24:53.277Z,98211.19
2022-11-02T04:27:23.477Z,98221.66
2022-11-02T04:29:55.041Z,98221.00
2022-11-02T04:32:37.627Z,98226.56
2022-11-02T04:35:13.733Z,98227.66
2022-11-02T04:37:56.980Z,98230.31
2022-11-02T04:40:26.998Z,98232.19
2022-11-02T04:42:57.393Z,98224.31
2022-11-02T04:45:27.587Z,98223.41
2022-11-02T04:48:03.395Z,98222.75
2022-11-02T04:50:36.583Z,98231.25
2022-11-02T04:53:08.838Z,98224.63
2022-11-02T04:55:41.527Z,98238.38
2022-11-02T04:58:11.449Z,98236.69
2022-11-02T05:00:43.087Z,98240.19
2022-11-02T05:03:14.641Z,98246.69
2022-11-02T05:05:48.708Z,98235.59
2022-11-02T05:08:18.625Z,98241.94
2022-11-02T05:10:48.572Z,98240.38
2022-11-02T05:13:18.691Z,98235.59
2022-11-02T05:15:48.705Z,98238.69
2022-11-02T05:18:19.246Z,98233.59
2022-11-02T05:20:55.946Z,98234.66
2022-11-02T05:23:28.261Z,98234.03
2022-11-02T05:26:00.127Z,98236.44
2022-11-02T05:28:32.577Z,98234.63
2022-11-02T05:31:04.119Z,98248.06
2022-11-02T05:33:36.292Z,98242.84
2022-11-02T05:36:14.618Z,98239.00
2022-11-02T05:38:47.873Z,98242.25
2022-11-02T05:41:17.753Z,98241.59
2022-11-02T05:43:47.715Z,98237.50
2022-11-02T05:46:19.045Z,98235.94
2022-11-02T05:48:48.903Z,98227.59
2022-11-02T05:51:21.413Z,98234.88
2022-11-02T05:53:51.235Z,98234.44
2022-11-02T05:56:24.966Z,98247.69
2022-11-02T05:58:57.219Z,98247.19
2022-11-02T06:01:27.141Z,98246.41
2022-11-02T06:03:57.015Z,98242.38
2022-11-02T06:06:30.027Z,98248.56
2022-11-02T06:09:04.338Z,98246.09
2022-11-02T06:11:36.834Z,98246.50
2022-11-02T06:14:06.837Z,98246.38
2022-11-02T06:16:36.824Z,98239.78
2022-11-02T06:19:06.732Z,98237.66
2022-11-02T06:21:41.080Z,98245.34
2022-11-02T06:24:13.023Z,98246.22
2022-11-02T06:26:43.134Z,98249.28
2022-11-02T06:29:12.966Z,98252.38
2022-11-02T06:31:42.770Z,98259.59
2022-11-02T06:34:12.600Z,98267.00
2022-11-02T06:36:45.060Z,98262.25
2022-11-02T06:39:14.911Z,98273.47
2022-11-02T06:41:44.834Z,98276.69
2022-11-02T06:44:14.648Z,98262.94
2022-11-02T06:46:44.436Z,98281.09
2022-11-02T06:49:14.313Z,98277.34
2022-11-02T06:51:46.800Z,98289.38
2022-11-02T06:54:16.656Z,98284.75
2022-11-02T06:56:46.505Z,98289.22
2022-11-02T06:59:16.399Z,98289.03
2022-11-02T07:01:46.438Z,98291.47
2022-11-02T07:04:16.357Z,98290.19
2022-11-02T07:06:48.768Z,98282.25
2022-11-02T07:09:18.666Z,98279.25
2022-11-02T07:11:48.538Z,98285.84
2022-11-02T07:14:18.388Z,98289.50
2022-11-02T07:16:48.280Z,98293.72
2022-11-02T07:19:18.069Z,98282.53
2022-11-02T07:21:50.571Z,98292.44
2022-11-02T07:24:20.370Z,98297.47
2022-11-02T07:26:51.213Z,98282.19
2022-11-02T07:29:21.360Z,98279.97
2022-11-02T07:31:51.249Z,98289.34
2022-11-02T07:34:21.103Z,98290.03
2022-11-02T07:36:54.438Z,98293.53
2022-11-02T07:39:24.551Z,98289.06
2022-11-02T07:41:54.460Z,98286.06
2022-11-02T07:44:27.044Z,98280.72
2022-11-02T07:46:56.890Z,98287.81
2022-11-02T07:49:26.785Z,98298.41
2022-11-02T07:51:59.387Z,98295.66
2022-11-02T07:54:29.506Z,98293.06
2022-11-02T07:56:59.424Z,98292.75
2022-11-02T07:59:29.275Z,98292.38
2022-11-02T08:01:59.419Z,98292.72
2022-11-02T08:04:29.264Z,98301.25
2022-11-02T08:07:06.003Z,98304.94
2022-11-02T08:09:35.865Z,98302.69
2022-11-02T08:12:05.921Z,98300.03
2022-11-02T08:14:35.788Z,98312.19
2022-11-02T08:17:05.824Z,98327.75
2022-11-02T08:19:35.805Z,98322.28
2022-11-02T08:22:08.518Z,98332.06
2022-11-02T08:24:38.451Z,98341.75
2022-11-02T08:27:08.325Z,98316.69
2022-11-02T08:29:38.233Z,98338.97
2022-11-02T08:32:08.643Z,98323.66
2022-11-02T08:34:38.521Z,98336.38
2022-11-02T08:37:12.617Z,98333.75
2022-11-02T08:39:42.690Z,98319.53
2022-11-02T08:42:12.537Z,98326.00
2022-11-02T08:44:42.886Z,98336.41
2022-11-02T08:47:12.781Z,98327.50
2022-11-02T08:49:42.648Z,98323.81
2022-11-02T08:52:15.228Z,98326.56
2022-11-02T08:54:45.123Z,98340.00
2022-11-02T08:57:15.047Z,98341.47
2022-11-02T08:59:44.888Z,98343.00
2022-11-02T09:02:17.906Z,98335.28
2022-11-02T09:04:47.806Z,98342.22
2022-11-02T09:07:20.216Z,98340.38
2022-11-02T09:09:50.110Z,98347.44
2022-11-02T09:12:19.946Z,98332.22
2022-11-02T09:14:49.779Z,98336.81
2022-11-02T09:17:19.785Z,98336.63
2022-11-02T09:19:49.772Z,98341.81
2022-11-02T09:22:22.289Z,98339.88
2022-11-02T09:24:52.169Z,98335.75
2022-11-02T09:27:22.011Z,98346.59
2022-11-02T09:29:51.905Z,98343.31
2022-11-02T09:32:21.704Z,98348.69
2022-11-02T09:34:52.364Z,98349.88
2022-11-02T09:37:25.024Z,98351.22
2022-11-02T09:39:55.133Z,98344.00
2022-11-02T09:42:28.411Z,98348.91
2022-11-02T09:45:01.772Z,98345.28
2022-11-02T09:53:22.044Z,98348.06
2022-11-02T09:55:55.154Z,98355.44
2022-11-02T09:58:31.891Z,98342.50
2022-11-02T10:01:07.807Z,98339.34
2022-11-02T10:03:46.247Z,98347.78
2022-11-02T10:06:19.411Z,98354.69
2022-11-02T10:08:59.530Z,98354.50
2022-11-02T10:11:40.731Z,98351.63
2022-11-02T10:14:15.882Z,98349.31
2022-11-02T10:16:50.800Z,98345.47
2022-11-02T10:19:26.289Z,98339.41
2022-11-02T10:22:01.321Z,98344.09
2022-11-02T10:24:37.754Z,98333.06
2022-11-02T10:27:15.685Z,98356.06
2022-11-02T10:29:50.191Z,98354.59
2022-11-02T10:32:20.428Z,98354.13
2022-11-02T10:34:58.828Z,98350.75
2022-11-02T10:37:52.352Z,98355.19
2022-11-02T10:40:34.447Z,98361.38
2022-11-02T10:43:14.367Z,98356.38
2022-11-02T10:46:02.793Z,98353.25
2022-11-02T10:48:37.926Z,98352.25
2022-11-02T10:51:12.626Z,98372.28
2022-11-02T10:53:45.033Z,98359.00
2022-11-02T10:56:23.320Z,98370.34
2022-11-02T10:58:57.832Z,98368.00
2022-11-02T11:01:28.369Z,98365.38
2022-11-02T11:04:00.880Z,98371.78
2022-11-02T11:06:33.047Z,98366.19
2022-11-02T11:09:04.901Z,98368.03
2022-11-02T11:11:39.307Z,98374.91
2022-11-02T11:19:54.073Z,98377.69
2022-11-02T11:22:29.587Z,98371.69
2022-11-02T11:25:27.644Z,98376.78
2022-11-02T11:28:02.134Z,98385.97
2022-11-02T11:33:24.139Z,98376.38
2022-11-02T11:35:54.161Z,98375.81
2022-11-02T11:38:27.382Z,98376.59
2022-11-02T11:41:00.796Z,98369.84
2022-11-02T11:43:38.535Z,98372.34
2022-11-02T11:46:10.890Z,98379.31
2022-11-02T11:48:42.983Z,98382.97
2022-11-02T11:51:28.321Z,98375.06
2022-11-02T11:54:22.494Z,98374.88
2022-11-02T11:56:53.963Z,98361.91
2022-11-02T11:59:32.869Z,98368.50
2022-11-02T12:02:04.322Z,98359.63
2022-11-02T12:04:36.379Z,98351.50
2022-11-02T12:07:29.232Z,98353.03
2022-11-02T12:10:06.553Z,98353.69
2022-11-02T12:12:45.708Z,98354.38
2022-11-02T12:15:29.047Z,98363.63
2022-11-02T12:18:11.491Z,98344.06
2022-11-02T12:20:54.149Z,98342.19
2022-11-02T12:23:51.110Z,98339.88
2022-11-02T12:26:32.763Z,98343.72
2022-11-02T12:29:14.411Z,98363.28
2022-11-02T12:31:48.991Z,98347.81
2022-11-02T12:34:34.030Z,98342.84
2022-11-02T12:37:35.762Z,98336.44
2022-11-02T12:40:13.971Z,98355.00
2022-11-02T12:42:49.946Z,98366.09
2022-11-02T12:45:30.823Z,98357.22
2022-11-02T12:48:09.623Z,98359.59
2022-11-02T12:50:56.734Z,98345.81
2022-11-02T12:53:43.035Z,98333.50
2022-11-02T12:56:16.262Z,98338.56
2022-11-02T12:58:46.343Z,98339.06
2022-11-02T13:01:23.740Z,98334.97
2022-11-02T13:04:01.326Z,98338.06
2022-11-02T13:06:37.236Z,98353.31
2022-11-02T13:09:10.572Z,98352.13
2022-11-02T13:11:42.578Z,98343.03
2022-11-02T13:14:16.095Z,98344.84
2022-11-02T13:16:52.262Z,98353.84
2022-11-02T13:19:29.834Z,98352.03
2022-11-02T13:22:01.237Z,98357.28
2022-11-02T13:24:36.800Z,98359.41
2022-11-02T13:27:21.702Z,98362.53
2022-11-02T13:30:01.700Z,98367.03
2022-11-02T13:32:35.915Z,98360.34
2022-11-02T13:35:19.736Z,98362.84
2022-11-02T13:37:52.632Z,98354.25
2022-11-02T13:40:26.830Z,98355.16
2022-11-02T13:43:24.352Z,98341.28
2022-11-02T13:46:06.440Z,98352.09
2022-11-02T13:48:51.270Z,98352.88
2022-11-02T13:51:29.176Z,98353.78
2022-11-02T13:54:03.129Z,98349.16
2022-11-02T13:56:33.279Z,98356.19
2022-11-02T13:59:06.326Z,98352.84
2022-11-02T14:01:37.843Z,98350.41
2022-11-02T14:04:10.273Z,98356.69
2022-11-02T14:06:51.969Z,98347.44
2022-11-02T14:09:32.530Z,98348.75
2022-11-02T14:12:31.039Z,98346.78
2022-11-02T14:15:51.652Z,98351.88
2022-11-02T14:18:31.962Z,98356.06
2022-11-02T14:21:02.305Z,98351.22
2022-11-02T14:23:52.414Z,98357.56
2022-11-02T14:26:37.583Z,98350.44
2022-11-02T14:29:39.123Z,98353.38
2022-11-02T14:32:15.805Z,98348.53
2022-11-02T14:35:07.245Z,98347.78
2022-11-02T14:37:47.426Z,98365.28
2022-11-02T14:40:30.982Z,98355.06
2022-11-02T14:43:30.786Z,98360.50
2022-11-02T14:46:15.422Z,98369.63
2022-11-02T14:48:48.515Z,98366.66
2022-11-02T14:51:21.474Z,98369.09
2022-11-02T14:53:52.882Z,98366.41
2022-11-02T14:56:25.624Z,98356.00
2022-11-02T14:58:58.308Z,98352.91
2022-11-02T15:01:28.425Z,98345.47
2022-11-02T15:03:58.404Z,98337.91
2022-11-02T15:06:31.903Z,98334.75
2022-11-02T15:09:04.187Z,98341.50
2022-11-02T15:11:53.664Z,98353.94
2022-11-02T15:14:51.428Z,98360.41
2022-11-02T15:17:51.348Z,98363.47
2022-11-02T15:20:32.341Z,98376.09
2022-11-02T15:23:10.143Z,98381.06
2022-11-02T15:25:43.989Z,98381.81
2022-11-02T15:28:20.698Z,98382.94
2022-11-02T15:30:53.274Z,98384.09
2022-11-02T15:33:29.672Z,98390.44
2022-11-02T15:36:01.888Z,98384.78
2022-11-02T15:38:38.387Z,98381.06
2022-11-02T15:41:26.901Z,98387.72
2022-11-02T15:44:11.935Z,98383.00
2022-11-02T15:46:53.789Z,98398.84
2022-11-02T15:49:35.338Z,98392.28
2022-11-02T15:52:11.038Z,98397.75
2022-11-02T15:54:57.301Z,98392.66
2022-11-02T15:57:36.394Z,98394.97
2022-11-02T16:00:14.835Z,98400.72
2022-11-02T16:02:46.541Z,98402.75
2022-11-02T16:05:21.123Z,98413.94
2022-11-02T16:08:20.974Z,98415.75
2022-11-02T16:10:41.841Z,98412.19
2022-11-02T16:13:17.476Z,98412.88
2022-11-02T16:15:51.779Z,98416.50
2022-11-02T16:18:30.025Z,98414.28
2022-11-02T16:21:02.574Z,98410.31
2022-11-02T16:23:34.700Z,98410.88
2022-11-02T16:26:07.806Z,98412.69
2022-11-02T16:28:39.094Z,98420.72
2022-11-02T16:31:19.963Z,98418.13
2022-11-02T16:33:51.784Z,98410.41
2022-11-02T16:36:23.970Z,98415.00
2022-11-02T16:39:00.555Z,98423.41
2022-11-02T16:41:31.678Z,98426.78
2022-11-02T16:44:04.358Z,98418.63
2022-11-02T16:46:44.877Z,98427.41
2022-11-02T16:49:20.189Z,98428.84
2022-11-02T16:51:55.676Z,98430.94
2022-11-02T16:54:35.601Z,98431.84
2022-11-02T16:57:11.725Z,98429.66
2022-11-02T16:59:51.106Z,98425.50
2022-11-02T17:02:31.844Z,98439.19
2022-11-02T17:05:05.972Z,98436.59
2022-11-02T17:07:38.795Z,98437.88
2022-11-02T17:10:10.645Z,98435.72
2022-11-02T17:12:43.651Z,98440.50
2022-11-02T17:15:18.522Z,98440.13
2022-11-02T17:17:51.188Z,98443.28
2022-11-02T17:20:24.623Z,98446.22
2022-11-02T17:22:57.678Z,98444.09
2022-11-02T17:25:29.891Z,98445.34
2022-11-02T17:28:00.917Z,98435.84
2022-11-02T17:30:47.577Z,98444.81
2022-11-02T17:33:38.550Z,98436.38
2022-11-02T17:36:10.451Z,98447.06
2022-11-02T17:38:40.500Z,98437.38
2022-11-02T17:41:25.433Z,98438.63
2022-11-02T17:43:55.306Z,98446.06
2022-11-02T17:46:25.193Z,98455.63
2022-11-02T17:48:57.839Z,98448.88
2022-11-02T17:51:28.584Z,98457.09
2022-11-02T17:53:58.471Z,98463.28
2022-11-02T17:56:28.381Z,98461.75
2022-11-02T17:58:58.415Z,98462.22
2022-11-02T18:01:28.459Z,98476.69
2022-11-02T18:04:01.224Z,98471.28
2022-11-02T18:06:31.810Z,98470.84
2022-11-02T18:09:19.508Z,98469.47
2022-11-02T18:11:49.592Z,98463.00
2022-11-02T18:14:19.876Z,98468.88
2022-11-02T18:16:50.792Z,98468.88
2022-11-02T18:19:23.419Z,98467.38
2022-11-02T18:21:53.289Z,98466.72
2022-11-02T18:24:23.124Z,98470.13
2022-11-02T18:26:52.952Z,98463.66
2022-11-02T18:29:22.946Z,98458.09
2022-11-02T18:31:53.207Z,98461.34
2022-11-02T18:34:25.710Z,98454.88
2022-11-02T18:36:55.651Z,98449.78
2022-11-02T18:39:25.735Z,98449.63
2022-11-02T18:41:55.735Z,98445.44
2022-11-02T18:44:25.602Z,98449.44
2022-11-02T18:46:57.751Z,98452.72
2022-11-02T18:49:30.309Z,98452.72
2022-11-02T18:52:00.193Z,98456.25
2022-11-02T18:54:30.230Z,98450.56
2022-11-02T18:57:00.230Z,98457.81
2022-11-02T18:59:30.216Z,98460.28
2022-11-02T19:02:00.347Z,98452.88
2022-11-02T19:04:33.410Z,98453.19
2022-11-02T19:07:16.474Z,98444.69
2022-11-02T19:09:46.658Z,98445.94
2022-11-02T19:12:17.893Z,98444.56
2022-11-02T19:14:49.643Z,98443.47
2022-11-02T19:17:19.571Z,98440.53
2022-11-02T19:19:52.231Z,98434.38
2022-11-02T19:22:23.647Z,98439.78
2022-11-02T19:24:54.207Z,98439.94
2022-11-02T19:27:25.127Z,98443.47
2022-11-02T19:29:55.424Z,98439.31
2022-11-02T19:32:25.278Z,98432.38
2022-11-02T19:34:57.872Z,98441.25
2022-11-02T19:37:31.869Z,98436.28
2022-11-02T19:40:04.267Z,98438.13
2022-11-02T19:42:34.185Z,98441.66
2022-11-02T19:45:04.071Z,98444.22
2022-11-02T19:47:33.995Z,98440.50
2022-11-02T19:50:06.788Z,98445.69
2022-11-02T19:52:37.375Z,98450.28
2022-11-02T19:55:08.014Z,98451.50
2022-11-02T19:57:37.892Z,98446.75
2022-11-02T20:00:09.071Z,98452.09
2022-11-02T20:02:38.969Z,98451.63
2022-11-02T20:05:12.798Z,98449.75
2022-11-02T20:07:42.665Z,98456.75
2022-11-02T20:10:13.665Z,98458.47
2022-11-02T20:12:43.486Z,98461.22
2022-11-02T20:15:14.001Z,98454.59
2022-11-02T20:18:05.635Z,98457.50
2022-11-02T20:20:36.314Z,98474.53
2022-11-02T20:23:06.267Z,98477.06
2022-11-02T20:25:36.190Z,98475.56
2022-11-02T20:28:06.501Z,98471.56
2022-11-02T20:30:36.707Z,98480.34
2022-11-02T20:33:06.684Z,98483.88
2022-11-02T20:35:40.136Z,98490.75
2022-11-02T20:38:10.067Z,98492.19
2022-11-02T20:40:41.350Z,98495.22
2022-11-02T20:43:11.372Z,98488.13
2022-11-02T20:45:41.235Z,98484.31
2022-11-02T20:48:11.145Z,98486.75
2022-11-02T20:50:43.578Z,98487.78
2022-11-02T20:53:13.856Z,98490.53
2022-11-02T20:55:45.064Z,98490.13
2022-11-02T20:58:15.014Z,98494.31
2022-11-02T21:00:45.028Z,98492.06
2022-11-02T21:03:14.971Z,98490.25
2022-11-02T21:05:47.770Z,98495.03
2022-11-02T21:08:17.669Z,98499.78
2022-11-02T21:10:47.658Z,98496.09
2022-11-02T21:13:29.976Z,98501.00
2022-11-02T21:16:05.368Z,98500.56
2022-11-02T21:18:35.581Z,98489.69
2022-11-02T21:21:12.678Z,98490.84
2022-11-02T21:23:42.959Z,98491.59
2022-11-02T21:26:14.393Z,98493.91
2022-11-02T21:28:46.246Z,98495.66
2022-11-02T21:31:18.027Z,98493.34
2022-11-02T21:33:48.788Z,98491.84
2022-11-02T21:36:21.734Z,98493.25
2022-11-02T21:38:51.565Z,98484.78
2022-11-02T21:41:25.913Z,98490.31
2022-11-02T21:43:56.064Z,98475.00
2022-11-02T21:46:27.052Z,98475.41
2022-11-02T21:48:57.919Z,98472.78
2022-11-02T21:51:30.560Z,98472.44
2022-11-02T21:54:00.536Z,98462.44
2022-11-02T21:56:32.074Z,98460.75
2022-11-02T21:59:02.293Z,98465.25
2022-11-02T22:01:49.419Z,98461.84
2022-11-02T22:06:37.709Z,98457.84
2022-11-02T22:09:10.179Z,98466.56
2022-11-02T22:11:40.314Z,98461.16
2022-11-02T22:14:10.394Z,98459.19
2022-11-02T22:16:42.890Z,98454.09
2022-11-02T22:19:15.442Z,98463.16
2022-11-02T22:21:49.566Z,98464.38
2022-11-02T22:24:21.303Z,98455.75
2022-11-02T22:26:53.594Z,98456.00
2022-11-02T22:29:24.501Z,98454.13
2022-11-02T22:31:54.672Z,98461.63
2022-11-02T22:34:24.793Z,98448.72
2022-11-02T22:37:17.647Z,98452.69
2022-11-02T22:39:45.104Z,98446.97
2022-11-02T22:42:15.195Z,98452.16
2022-11-02T22:44:45.270Z,98452.16
2022-11-02T22:47:15.385Z,98455.81
2022-11-02T22:49:45.396Z,98447.19
2022-11-02T22:52:18.064Z,98452.38
2022-11-02T22:54:48.103Z,98447.09
2022-11-02T22:57:18.214Z,98445.22
2022-11-02T22:59:48.330Z,98448.78
2022-11-02T23:02:18.397Z,98449.19
2022-11-02T23:04:48.457Z,98443.38
2022-11-02T23:07:21.199Z,98438.06
2022-11-02T23:09:51.257Z,98434.97
2022-11-02T23:12:18.737Z,98431.22
2022-11-02T23:14:48.863Z,98429.22
2022-11-02T23:17:19.079Z,98438.16
2022-11-02T23:19:46.544Z,98426.09
2022-11-02T23:22:29.055Z,98428.97
2022-11-02T23:25:17.973Z,98422.88
2022-11-02T23:28:02.390Z,98420.97
2022-11-02T23:30:47.659Z,98418.59
2022-11-02T23:33:17.936Z,98417.72
2022-11-02T23:36:00.736Z,98419.25
2022-11-02T23:38:51.013Z,98403.31
2022-11-02T23:41:23.738Z,98402.31
2022-11-02T23:44:11.940Z,98398.78
2022-11-02T23:46:43.687Z,98408.91
2022-11-02T23:49:14.293Z,98409.88
2022-11-02T23:51:56.817Z,98404.88
2022-11-02T23:54:39.370Z,98408.72
2022-11-02T23:57:12.785Z,98406.72
2022-11-02T23:59:43.187Z,98408.28
